Time;durP1;ratioP1;P1;durP2;ratioP2;P2;SDS_P1;SDS_P2;PMS_P1;PMS_P2;Temp;Humidity;BMP_temperature;BMP_pressure;BME280_temperature;BME280_humidity;BME280_pressure;Samples;Min_cycle;Max_cycle;Signal;HPM_P1;HPM_P2
2021/04/05 00:00:12;;;;;;;15.68;7.60;;;;;;;1.88;72.92;98667.03;5014691;28;20116;-70
2021/04/05 00:02:37;;;;;;;16.48;8.13;;;;;;;1.77;73.20;98662.75;5013898;28;20076;-68
2021/04/05 00:05:08;;;;;;;20.55;8.40;;;;;;;1.74;73.74;98668.41;5014051;28;20025;-70
2021/04/05 00:07:33;;;;;;;15.93;8.60;;;;;;;1.68;72.91;98664.50;5012647;28;20378;-69
2021/04/05 00:09:58;;;;;;;15.48;8.15;;;;;;;1.61;73.70;98660.75;5014081;28;20101;-70
2021/04/05 00:12:24;;;;;;;17.25;8.48;;;;;;;1.77;73.34;98645.91;5013470;28;20076;-69
2021/04/05 00:14:50;;;;;;;22.67;9.23;;;;;;;1.95;72.25;98644.94;5014351;28;20399;-70
2021/04/05 00:17:16;;;;;;;18.70;8.80;;;;;;;1.94;72.39;98637.94;5013341;28;20098;-70
2021/04/05 00:19:43;;;;;;;24.70;9.48;;;;;;;1.74;73.32;98642.56;4996655;28;20029;-69
2021/04/05 00:22:08;;;;;;;18.40;8.85;;;;;;;1.81;73.14;98642.81;5014134;28;20025;-69
2021/04/05 00:24:34;;;;;;;21.48;8.98;;;;;;;1.75;73.62;98622.88;5014451;28;20033;-69
2021/04/05 00:27:00;;;;;;;17.95;9.18;;;;;;;1.88;73.07;98629.69;5014946;28;20022;-69
2021/04/05 00:29:25;;;;;;;22.38;9.70;;;;;;;1.68;72.81;98631.69;4998167;28;20026;-73
2021/04/05 00:31:50;;;;;;;21.10;9.60;;;;;;;1.56;74.33;98647.03;5014819;28;20057;-70
2021/04/05 00:34:16;;;;;;;19.55;9.45;;;;;;;1.41;74.02;98635.19;5014005;28;20030;-68
2021/04/05 00:36:42;;;;;;;22.80;8.93;;;;;;;1.22;75.05;98642.31;5015292;28;20029;-71
2021/04/05 00:39:07;;;;;;;19.23;9.50;;;;;;;1.21;75.02;98629.16;5015364;28;20113;-70
2021/04/05 00:41:32;;;;;;;21.83;9.27;;;;;;;1.29;75.33;98621.25;5016017;28;20033;-69
2021/04/05 00:43:58;;;;;;;17.90;9.13;;;;;;;1.38;74.56;98612.34;5014800;28;20034;-69
2021/04/05 00:46:24;;;;;;;21.02;9.52;;;;;;;1.43;74.82;98618.06;5009891;28;20387;-69
2021/04/05 00:48:50;;;;;;;23.23;9.10;;;;;;;1.44;75.39;98616.22;5012105;28;20033;-67
2021/04/05 00:51:20;;;;;;;19.50;8.32;;;;;;;1.26;74.67;98606.41;4992582;28;20450;-70
2021/04/05 00:53:47;;;;;;;20.17;9.02;;;;;;;1.14;73.99;98599.59;5012743;28;20040;-70
2021/04/05 00:56:14;;;;;;;15.32;8.55;;;;;;;1.28;75.53;98592.91;5013473;28;20026;-69
2021/04/05 00:58:40;;;;;;;22.45;8.93;;;;;;;1.34;75.24;98591.47;5012775;28;20036;-70
2021/04/05 01:01:12;;;;;;;21.20;9.55;;;;;;;1.35;74.91;98570.00;5011805;28;20026;-69
2021/04/05 01:03:41;;;;;;;21.42;9.10;;;;;;;1.43;74.05;98586.06;5012347;28;20033;-69
2021/04/05 01:06:06;;;;;;;23.17;8.75;;;;;;;1.53;73.80;98573.53;5005584;28;20036;-69
2021/04/05 01:08:32;;;;;;;22.40;8.20;;;;;;;1.47;72.86;98575.97;5012772;28;20022;-70
2021/04/05 01:10:57;;;;;;;22.70;9.60;;;;;;;1.35;73.85;98578.00;5011353;28;20470;-69
2021/04/05 01:13:22;;;;;;;18.33;8.55;;;;;;;1.31;74.43;98572.13;5012763;28;20387;-69
2021/04/05 01:15:48;;;;;;;18.65;8.63;;;;;;;1.25;74.93;98566.56;5013089;28;20077;-69
2021/04/05 01:18:15;;;;;;;24.30;8.95;;;;;;;1.31;74.63;98569.47;4991668;28;20038;-69
2021/04/05 01:20:41;;;;;;;21.13;9.23;;;;;;;1.25;74.63;98571.88;5009429;28;20025;-70
2021/04/05 01:23:07;;;;;;;20.13;8.65;;;;;;;1.23;74.55;98550.75;5012416;28;20074;-69
2021/04/05 01:25:32;;;;;;;15.80;7.93;;;;;;;1.23;74.65;98555.19;5005058;28;20060;-69
2021/04/05 01:27:58;;;;;;;21.77;9.63;;;;;;;1.32;75.17;98541.00;4995342;28;20026;-69
2021/04/05 01:30:33;;;;;;;18.23;8.63;;;;;;;1.38;74.03;98552.88;5011809;28;20041;-69
2021/04/05 01:33:08;;;;;;;17.75;9.40;;;;;;;1.31;74.62;98558.81;5011424;28;20022;-70
2021/04/05 01:35:41;;;;;;;19.15;8.57;;;;;;;1.22;74.32;98551.72;4984311;28;20783;-69
2021/04/05 01:38:08;;;;;;;23.00;9.55;;;;;;;1.07;74.71;98555.88;5011729;28;20104;-69
2021/04/05 01:40:38;;;;;;;22.33;9.02;;;;;;;0.86;75.02;98540.13;5012426;28;20454;-70
2021/04/05 01:43:04;;;;;;;19.83;8.65;;;;;;;0.65;75.21;98533.25;5012032;28;20105;-69
2021/04/05 01:45:30;;;;;;;18.45;8.82;;;;;;;0.62;75.70;98543.34;5012616;28;20382;-70
2021/04/05 01:47:55;;;;;;;22.83;9.05;;;;;;;0.61;76.54;98499.06;5009064;28;20090;-70
2021/04/05 01:50:21;;;;;;;18.77;9.30;;;;;;;0.66;76.29;98518.13;5012639;28;20025;-70
2021/04/05 01:52:46;;;;;;;17.17;8.35;;;;;;;0.62;76.92;98498.91;5012540;28;22525;-70
2021/04/05 01:55:12;;;;;;;19.73;8.75;;;;;;;0.75;76.58;98514.56;5014249;28;20065;-70
2021/04/05 01:57:38;;;;;;;22.73;8.27;;;;;;;0.82;76.14;98497.00;5016988;28;20053;-70
2021/04/05 02:00:13;;;;;;;15.88;8.25;;;;;;;0.78;75.81;98497.44;5017374;28;20036;-70
2021/04/05 02:02:40;;;;;;;16.75;8.30;;;;;;;0.74;75.83;98477.44;5016451;28;20491;-68
2021/04/05 02:05:08;;;;;;;17.35;8.30;;;;;;;0.80;76.53;98484.81;5016611;28;20052;-69
2021/04/05 02:07:38;;;;;;;15.00;7.90;;;;;;;0.68;75.71;98465.53;5011350;28;20432;-70
2021/04/05 02:10:26;;;;;;;16.33;9.30;;;;;;;0.78;75.85;98468.97;5017173;28;20037;-70
2021/04/05 02:12:52;;;;;;;20.30;8.75;;;;;;;0.90;74.92;98477.63;5016277;28;20033;-69
2021/04/05 02:15:18;;;;;;;17.38;8.50;;;;;;;0.82;75.29;98462.38;5015882;28;20069;-69
2021/04/05 02:17:45;;;;;;;20.58;8.95;;;;;;;0.91;75.28;98470.44;4998556;28;20484;-70
2021/04/05 02:20:13;;;;;;;20.17;9.35;;;;;;;0.88;75.44;98474.25;5017325;28;20030;-70
2021/04/05 02:22:42;;;;;;;17.88;8.75;;;;;;;0.86;74.99;98450.44;4999608;28;20028;-70
2021/04/05 02:25:12;;;;;;;19.50;8.00;;;;;;;0.86;75.58;98460.25;5015718;28;20400;-69
2021/04/05 02:27:37;;;;;;;18.58;8.63;;;;;;;0.74;75.43;98435.66;4998845;28;20032;-69
2021/04/05 02:30:06;;;;;;;16.10;8.57;;;;;;;1.09;74.89;98453.50;4998186;28;20403;-70
2021/04/05 02:32:32;;;;;;;19.52;7.60;;;;;;;0.96;75.12;98437.03;5014717;28;20033;-69
2021/04/05 02:34:57;;;;;;;14.82;8.60;;;;;;;0.99;74.26;98449.22;5015400;28;20046;-68
2021/04/05 02:37:23;;;;;;;21.02;7.90;;;;;;;0.84;74.81;98448.94;5016204;28;20049;-70
2021/04/05 02:39:48;;;;;;;19.20;8.10;;;;;;;0.90;75.21;98460.81;5016127;28;20033;-70
2021/04/05 02:42:16;;;;;;;18.83;8.13;;;;;;;0.85;75.12;98461.25;4998490;28;20033;-70
2021/04/05 02:44:41;;;;;;;17.17;8.38;;;;;;;0.65;75.84;98442.75;5015677;28;20030;-70
2021/04/05 02:47:07;;;;;;;23.17;8.73;;;;;;;0.76;76.10;98448.81;5015847;28;20056;-70
2021/04/05 02:49:32;;;;;;;18.10;8.38;;;;;;;0.88;75.19;98418.31;5016438;28;20072;-69
2021/04/05 02:51:58;;;;;;;15.57;8.90;;;;;;;0.82;74.71;98433.09;5015705;28;20034;-68
2021/04/05 02:54:25;;;;;;;17.70;8.25;;;;;;;0.95;74.49;98432.72;5015495;28;20041;-69
2021/04/05 02:56:52;;;;;;;16.75;8.32;;;;;;;0.92;74.90;98432.16;5017385;28;20067;-69
2021/04/05 02:59:20;;;;;;;13.68;7.80;;;;;;;0.79;74.88;98424.56;5015838;28;20038;-70
2021/04/05 03:01:46;;;;;;;20.50;8.53;;;;;;;0.84;75.43;98419.63;5016570;28;20048;-70
2021/04/05 03:04:12;;;;;;;13.55;7.38;;;;;;;0.93;74.90;98423.19;5016326;28;20034;-70
2021/04/05 03:06:37;;;;;;;19.27;8.40;;;;;;;0.92;75.37;98422.38;5014599;28;20056;-70
2021/04/05 03:09:05;;;;;;;15.93;8.57;;;;;;;0.83;75.30;98409.94;5015591;28;20107;-69
2021/04/05 03:11:31;;;;;;;17.67;7.65;;;;;;;0.96;74.57;98397.09;5015806;28;20034;-69
2021/04/05 03:13:57;;;;;;;16.10;8.15;;;;;;;0.85;75.17;98395.50;4996764;28;20038;-70
2021/04/05 03:16:24;;;;;;;20.00;8.02;;;;;;;0.95;74.94;98384.78;5015556;28;20040;-69
2021/04/05 03:18:52;;;;;;;15.38;7.35;;;;;;;0.98;74.79;98376.47;5014870;28;20037;-70
2021/04/05 03:21:20;;;;;;;18.05;7.78;;;;;;;0.92;74.74;98369.09;5014575;28;20101;-70
2021/04/05 03:23:46;;;;;;;16.85;7.53;;;;;;;1.00;74.59;98365.69;5013918;28;20036;-69
2021/04/05 03:26:12;;;;;;;15.93;7.18;;;;;;;1.01;75.25;98354.03;4996825;28;20038;-70
2021/04/05 03:28:37;;;;;;;16.35;6.60;;;;;;;0.92;74.92;98350.47;5015445;28;20057;-70
2021/04/05 03:31:08;;;;;;;12.30;6.15;;;;;;;1.02;74.59;98361.88;5014797;28;20060;-70
2021/04/05 03:33:44;;;;;;;14.13;6.38;;;;;;;0.96;75.24;98343.81;5014051;28;20087;-70
2021/04/05 03:36:16;;;;;;;17.20;7.18;;;;;;;0.98;74.35;98352.50;5014827;28;20479;-69
2021/04/05 03:38:41;;;;;;;16.25;5.93;;;;;;;0.94;74.91;98329.81;5013593;28;20038;-70
2021/04/05 03:41:15;;;;;;;14.38;7.15;;;;;;;0.97;75.17;98334.88;5007569;28;20030;-69
2021/04/05 03:44:03;;;;;;;19.10;6.22;;;;;;;1.08;75.43;98333.78;5012778;28;20033;-70
2021/04/05 03:46:32;;;;;;;12.90;6.60;;;;;;;1.09;74.67;98328.28;4996112;28;20027;-70
2021/04/05 03:49:05;;;;;;;13.95;6.38;;;;;;;1.09;74.43;98332.78;5013838;28;20487;-69
2021/04/05 03:51:57;;;;;;;17.63;7.10;;;;;;;0.95;74.84;98331.50;5015126;28;20484;-70
2021/04/05 03:54:23;;;;;;;10.93;7.00;;;;;;;0.95;74.48;98339.50;5009696;28;20056;-69
2021/04/05 03:56:53;;;;;;;11.50;5.78;;;;;;;0.88;74.41;98330.44;5021279;28;20022;-70
2021/04/05 03:59:25;;;;;;;17.50;7.15;;;;;;;0.96;74.88;98322.50;4997468;28;20558;-70
2021/04/05 04:01:54;;;;;;;15.32;5.97;;;;;;;1.19;75.00;98309.53;5014453;28;20053;-70
2021/04/05 04:04:35;;;;;;;17.35;6.32;;;;;;;1.33;73.56;98301.97;5013278;28;20026;-72
2021/04/05 04:09:34;;;;;;;15.30;6.45;;;;;;;1.30;73.12;98287.13;5013722;28;20065;-71
2021/04/05 04:12:01;;;;;;;14.02;6.07;;;;;;;1.24;73.67;98288.59;5011681;28;20495;-70
2021/04/05 04:14:27;;;;;;;14.88;6.32;;;;;;;1.31;73.29;98284.31;5013660;28;20391;-69
2021/04/05 04:16:53;;;;;;;16.83;6.35;;;;;;;1.31;73.55;98278.97;5013520;28;20141;-68
2021/04/05 04:19:20;;;;;;;15.90;6.03;;;;;;;1.43;73.19;98279.53;5012146;28;20072;-69
2021/04/05 04:21:47;;;;;;;14.57;6.38;;;;;;;1.50;72.93;98275.25;5011973;28;20030;-69
2021/04/05 04:24:13;;;;;;;13.82;5.68;;;;;;;1.49;72.88;98278.06;4996070;28;20107;-69
2021/04/05 04:26:39;;;;;;;13.88;6.95;;;;;;;1.41;73.14;98278.84;5013106;28;20045;-69
2021/04/05 04:29:05;;;;;;;13.60;5.72;;;;;;;1.43;73.14;98266.22;4991956;28;20518;-69
2021/04/05 04:31:30;;;;;;;17.00;6.28;;;;;;;1.41;73.52;98267.38;4994430;28;20058;-68
2021/04/05 04:33:56;;;;;;;15.77;5.72;;;;;;;1.62;73.02;98265.13;5010896;28;20061;-69
2021/04/05 04:36:23;;;;;;;13.68;5.15;;;;;;;1.85;72.21;98262.72;5013216;28;20116;-69
2021/04/05 04:38:54;;;;;;;11.75;5.00;;;;;;;1.89;71.93;98261.44;5011448;28;20036;-69
2021/04/05 04:41:30;;;;;;;11.63;5.00;;;;;;;1.77;71.99;98246.69;5012896;28;20049;-69
2021/04/05 04:43:57;;;;;;;11.27;5.43;;;;;;;1.74;72.21;98252.38;5012805;28;20030;-69
2021/04/05 04:46:23;;;;;;;14.55;6.30;;;;;;;1.77;72.32;98270.69;4992573;28;20069;-69
2021/04/05 04:48:54;;;;;;;12.77;5.80;;;;;;;1.83;72.67;98267.38;5011488;28;20115;-71
2021/04/05 04:51:19;;;;;;;11.38;5.05;;;;;;;1.85;72.88;98259.22;5041273;23;20055;-69
2021/04/05 04:53:44;;;;;;;13.07;5.38;;;;;;;1.95;72.76;98259.94;5051815;28;20037;-68
2021/04/05 04:56:10;;;;;;;11.77;4.75;;;;;;;2.08;71.81;98238.13;5035791;28;20041;-68
2021/04/05 04:58:36;;;;;;;9.63;4.72;;;;;;;2.29;70.94;98235.81;5015794;28;20470;-69
2021/04/05 05:01:02;;;;;;;12.00;4.97;;;;;;;2.34;70.78;98233.50;5031257;28;20059;-69
2021/04/05 05:03:29;;;;;;;14.00;4.70;;;;;;;2.34;70.93;98228.16;5020573;28;20033;-69
2021/04/05 05:05:58;;;;;;;10.90;5.13;;;;;;;2.41;70.90;98234.53;5032846;28;20029;-69
2021/04/05 05:08:24;;;;;;;13.45;4.68;;;;;;;2.48;70.88;98218.66;5030824;28;20060;-69
2021/04/05 05:10:51;;;;;;;15.27;5.35;;;;;;;2.58;70.22;98219.31;5027990;28;20262;-69
2021/04/05 05:13:16;;;;;;;10.88;4.70;;;;;;;2.58;70.43;98218.50;5026727;28;20037;-69
2021/04/05 05:15:44;;;;;;;11.65;4.75;;;;;;;2.70;70.01;98219.84;5013329;28;20034;-70
2021/04/05 05:18:11;;;;;;;16.85;5.20;;;;;;;2.60;69.88;98217.34;5023181;28;20730;-69
2021/04/05 05:20:37;;;;;;;12.40;5.00;;;;;;;2.69;69.55;98207.47;5016169;28;20022;-69
2021/04/05 05:23:03;;;;;;;13.95;5.13;;;;;;;2.69;69.27;98194.13;5016680;28;20048;-69
2021/04/05 05:25:31;;;;;;;11.20;5.40;;;;;;;2.69;69.82;98210.13;5032719;28;20479;-69
2021/04/05 05:28:07;;;;;;;12.15;5.15;;;;;;;2.68;69.67;98197.81;5038570;28;20028;-69
2021/04/05 05:30:33;;;;;;;10.30;4.93;;;;;;;2.76;69.55;98205.81;5030285;28;20036;-69
2021/04/05 05:33:05;;;;;;;10.20;5.13;;;;;;;2.85;69.72;98198.59;5010984;28;20112;-69
2021/04/05 05:35:32;;;;;;;12.50;5.13;;;;;;;2.93;69.03;98189.75;5031613;28;20072;-69
2021/04/05 05:37:59;;;;;;;11.50;5.28;;;;;;;3.14;69.50;98179.34;5028455;28;20033;-69
2021/04/05 05:40:26;;;;;;;13.18;5.43;;;;;;;3.18;68.54;98167.31;5027375;28;20454;-69
2021/04/05 05:43:10;;;;;;;11.70;5.00;;;;;;;3.18;68.64;98180.66;5031902;28;20064;-69
2021/04/05 05:45:52;;;;;;;9.70;5.55;;;;;;;3.34;68.19;98177.09;5030337;28;20491;-73
2021/04/05 05:48:24;;;;;;;12.32;5.32;;;;;;;3.42;68.11;98190.44;5029375;28;20025;-73
2021/04/05 05:51:07;;;;;;;12.57;5.40;;;;;;;3.54;67.44;98177.53;5027814;28;20429;-76
2021/04/05 05:53:42;;;;;;;13.70;5.38;;;;;;;3.50;67.48;98169.00;5023552;28;20025;-73
2021/04/05 05:56:41;;;;;;;15.25;6.03;;;;;;;3.70;67.08;98169.44;5024049;28;20498;-73
2021/04/05 05:59:16;;;;;;;;;;;;;;;3.55;67.56;98155.13;5024759;28;20032;-75
2021/04/05 06:01:50;;;;;;;13.45;5.95;;;;;;;3.71;67.74;98162.22;5026358;28;19924;-75
2021/04/05 06:04:33;;;;;;;12.00;5.90;;;;;;;3.71;67.66;98159.56;5015415;28;20100;-70
2021/04/05 06:07:18;;;;;;;16.50;6.00;;;;;;;3.86;67.79;98168.50;5023400;28;20021;-71
2021/04/05 06:10:03;;;;;;;17.80;7.20;;;;;;;3.95;67.14;98158.56;5027004;28;20025;-72
2021/04/05 06:12:37;;;;;;;15.75;6.43;;;;;;;3.92;66.74;98138.34;5024722;28;20033;-74
2021/04/05 06:15:12;;;;;;;11.23;5.00;;;;;;;4.37;65.76;98151.91;4999712;28;20025;-75
2021/04/05 06:17:37;;;;;;;14.10;5.57;;;;;;;4.49;65.24;98149.66;5031961;28;20030;-75
2021/04/05 06:20:20;;;;;;;9.38;4.80;;;;;;;4.52;65.07;98147.44;5028108;28;20128;-73
2021/04/05 06:23:13;;;;;;;7.60;4.30;;;;;;;4.54;64.66;98145.41;5017035;28;20046;-71
2021/04/05 06:26:06;;;;;;;7.93;4.05;;;;;;;4.68;64.72;98148.31;5006113;28;20022;-72
2021/04/05 06:28:56;;;;;;;10.48;4.13;;;;;;;4.82;64.31;98142.97;5022185;28;20391;-71
2021/04/05 06:32:00;;;;;;;11.50;4.97;;;;;;;4.77;64.44;98139.19;5019973;28;20046;-73
2021/04/05 06:34:34;;;;;;;12.63;4.88;;;;;;;4.94;64.72;98123.75;5005218;28;20457;-72
2021/04/05 06:37:27;;;;;;;15.77;5.57;;;;;;;4.99;64.22;98124.03;5027562;28;20456;-72
2021/04/05 06:40:00;;;;;;;13.95;5.53;;;;;;;5.22;63.74;98118.59;5017809;28;20109;-73
2021/04/05 06:42:50;;;;;;;13.20;5.00;;;;;;;5.33;63.53;98115.44;5026437;28;20026;-74
2021/04/05 06:45:42;;;;;;;16.15;5.85;;;;;;;5.46;62.92;98114.75;5022946;28;20052;-73
2021/04/05 06:48:45;;;;;;;13.90;4.22;;;;;;;5.58;61.74;98133.88;5026041;28;20062;-72
2021/04/05 06:51:10;;;;;;;6.25;3.75;;;;;;;5.89;60.86;98122.88;5029642;28;20479;-72
2021/04/05 06:53:59;;;;;;;12.52;3.63;;;;;;;6.05;60.69;98116.47;5016368;28;20025;-73
2021/04/05 06:56:34;;;;;;;11.35;4.85;;;;;;;6.24;60.67;98105.09;5001127;28;20053;-69
2021/04/05 06:59:20;;;;;;;11.07;3.90;;;;;;;6.51;59.79;98108.00;5030823;28;20096;-68
2021/04/05 07:01:48;;;;;;;10.23;3.80;;;;;;;6.85;58.84;98104.53;5020951;28;20040;-69
2021/04/05 07:04:29;;;;;;;8.82;4.28;;;;;;;6.83;58.25;98089.63;5029600;28;20037;-68
2021/04/05 07:07:24;;;;;;;9.23;3.85;;;;;;;7.12;58.03;98094.75;5031413;28;20071;-68
2021/04/05 07:10:07;;;;;;;9.05;4.00;;;;;;;7.29;57.92;98097.16;5034151;28;20396;-68
2021/04/05 07:12:50;;;;;;;8.93;4.40;;;;;;;7.32;57.50;98099.44;5022444;28;20087;-68
2021/04/05 07:15:23;;;;;;;8.77;3.95;;;;;;;7.58;56.95;98096.03;5024247;28;20028;-69
2021/04/05 07:18:13;;;;;;;10.40;4.15;;;;;;;7.52;56.81;98094.13;5021311;28;20037;-68
2021/04/05 07:20:55;;;;;;;9.73;3.60;;;;;;;7.94;56.90;98087.63;5006686;28;20122;-69
2021/04/05 07:23:40;;;;;;;10.25;3.92;;;;;;;8.51;55.64;98094.38;5022507;28;20098;-69
2021/04/05 07:26:24;;;;;;;11.48;3.60;;;;;;;9.49;52.12;98090.84;5015723;28;20030;-75
2021/04/05 07:29:03;;;;;;;7.40;3.90;;;;;;;10.14;50.26;98074.50;5034746;28;20539;-74
2021/04/05 07:31:39;;;;;;;7.00;4.03;;;;;;;9.95;50.81;98078.94;5032996;28;20116;-73
2021/04/05 07:34:33;;;;;;;13.38;3.85;;;;;;;10.38;49.55;98067.47;5012630;28;20037;-74
2021/04/05 07:37:26;;;;;;;11.30;4.50;;;;;;;12.36;46.14;98057.22;5007707;28;20116;-71
2021/04/05 07:40:12;;;;;;;13.70;4.13;;;;;;;14.56;40.75;98061.81;5024779;28;20029;-74
2021/04/05 07:42:52;;;;;;;11.75;5.03;;;;;;;15.32;39.53;98034.88;5016115;28;20458;-75
2021/04/05 07:45:55;;;;;;;13.98;4.72;;;;;;;15.53;38.63;98052.28;5012598;28;20036;-70
2021/04/05 07:48:26;;;;;;;13.10;4.93;;;;;;;13.81;42.32;98058.28;5027726;28;20028;-72
2021/04/05 07:51:00;;;;;;;16.67;3.95;;;;;;;13.69;42.61;98048.53;5015614;28;20052;-72
2021/04/05 07:53:43;;;;;;;12.52;4.75;;;;;;;13.59;43.02;98047.25;5009545;28;20487;-73
2021/04/05 07:56:24;;;;;;;11.35;5.13;;;;;;;12.19;45.50;98040.00;5025856;28;20030;-74
2021/04/05 07:58:59;;;;;;;10.43;4.35;;;;;;;13.69;44.03;98045.81;5015785;28;20022;-73
2021/04/05 08:01:30;;;;;;;12.02;4.93;;;;;;;13.99;43.00;98046.41;5034051;28;20128;-74
2021/04/05 08:06:31;;;;;;;13.43;4.68;;;;;;;15.70;40.09;98016.81;5047453;28;20050;-71
2021/04/05 08:09:03;;;;;;;11.48;4.80;;;;;;;16.65;39.95;98021.78;5030800;28;20041;-78
2021/04/05 08:11:46;;;;;;;13.05;6.28;;;;;;;16.74;39.35;98003.84;5033440;28;20025;-76
2021/04/05 08:14:25;;;;;;;19.30;6.45;;;;;;;16.43;39.64;98008.25;5032925;28;20029;-75
2021/04/05 08:19:37;;;;;;;17.00;6.00;;;;;;;15.87;40.83;98015.91;5047944;28;20677;-72
2021/04/05 08:22:12;;;;;;;18.05;6.05;;;;;;;14.66;42.54;98010.25;5045694;28;20060;-73
2021/04/05 08:24:41;;;;;;;18.88;6.43;;;;;;;14.39;43.07;98017.41;5051200;28;20122;-76
2021/04/05 08:27:20;;;;;;;16.38;6.07;;;;;;;13.23;44.76;97999.50;5015301;28;20444;-73
2021/04/05 08:29:55;;;;;;;17.35;7.20;;;;;;;12.60;46.67;97995.69;5034263;28;20030;-73
2021/04/05 08:32:30;;;;;;;15.57;6.95;;;;;;;13.13;46.22;98019.13;5044887;28;20056;-72
2021/04/05 08:35:17;;;;;;;21.20;6.95;;;;;;;13.17;45.88;98003.16;5044716;28;20520;-74
2021/04/05 08:38:19;;;;;;;20.33;7.50;;;;;;;12.76;46.43;98010.44;5040488;28;20079;-78
2021/04/05 08:40:52;;;;;;;13.75;6.88;;;;;;;13.13;45.33;98005.53;5051657;28;20021;-77
2021/04/05 08:43:36;;;;;;;17.05;7.15;;;;;;;13.02;46.10;98011.81;5052159;28;20156;-72
2021/04/05 08:46:01;;;;;;;13.68;7.32;;;;;;;12.83;46.30;98010.28;5051288;28;20049;-82
2021/04/05 08:48:34;;;;;;;19.98;7.25;;;;;;;12.54;47.19;97990.38;5038256;28;20028;-81
2021/04/05 08:51:05;;;;;;;24.35;8.07;;;;;;;11.94;47.87;97989.47;5054917;28;20490;-80
2021/04/05 08:53:35;;;;;;;17.25;7.43;;;;;;;11.52;49.47;97997.53;5057527;28;20520;-79
2021/04/05 08:56:01;;;;;;;18.95;6.95;;;;;;;10.93;50.42;97974.78;5063105;28;20437;-79
2021/04/05 08:58:35;;;;;;;24.95;7.68;;;;;;;10.64;51.05;97968.22;5041292;28;20021;-80
2021/04/05 09:01:07;;;;;;;21.25;8.10;;;;;;;10.07;52.82;97979.09;5043433;28;20084;-79
2021/04/05 09:03:35;;;;;;;20.58;7.93;;;;;;;10.03;53.71;97997.66;5032497;28;20020;-78
2021/04/05 09:06:07;;;;;;;20.17;7.50;;;;;;;10.05;53.34;97981.19;5049893;28;20028;-72
2021/04/05 09:08:33;;;;;;;19.33;7.57;;;;;;;9.86;52.90;97975.72;5034263;28;20040;-73
2021/04/05 09:11:05;;;;;;;23.48;7.57;;;;;;;10.25;52.37;97989.16;5051131;28;20099;-75
2021/04/05 09:13:50;;;;;;;20.73;6.85;;;;;;;10.55;52.04;97983.91;5044493;28;20425;-74
2021/04/05 09:16:24;;;;;;;22.60;7.55;;;;;;;10.83;52.06;97990.69;5043351;28;20036;-73
2021/04/05 09:19:17;;;;;;;23.00;7.78;;;;;;;10.44;51.89;97995.47;5037001;28;20107;-72
2021/04/05 09:21:59;;;;;;;21.30;7.72;;;;;;;10.90;51.61;97980.63;5040374;28;20032;-71
2021/04/05 09:24:44;;;;;;;20.95;8.63;;;;;;;11.15;50.45;97969.69;5044955;28;20108;-71
2021/04/05 09:27:24;;;;;;;19.83;8.00;;;;;;;11.07;50.15;97970.84;5045419;28;20532;-72
2021/04/05 09:30:28;;;;;;;17.20;7.10;;;;;;;11.00;51.11;97970.09;5038094;28;20040;-71
2021/04/05 09:33:21;;;;;;;17.85;7.28;;;;;;;11.04;50.32;97965.88;5045006;28;20059;-72
2021/04/05 09:36:02;;;;;;;17.58;7.75;;;;;;;11.53;49.37;97963.19;5041152;28;20036;-71
2021/04/05 09:38:51;;;;;;;21.75;7.13;;;;;;;11.75;48.40;97958.88;5048610;28;20122;-71
2021/04/05 09:41:46;;;;;;;20.45;7.63;;;;;;;11.49;48.81;97956.56;5046780;28;20029;-71
2021/04/05 09:44:42;;;;;;;13.02;6.95;;;;;;;11.70;48.49;97950.59;5044284;28;20029;-72
2021/04/05 09:47:29;;;;;;;19.88;8.00;;;;;;;12.11;47.94;97953.56;5044291;28;20056;-71
2021/04/05 09:50:20;;;;;;;18.92;8.02;;;;;;;11.87;47.45;97942.69;5048682;28;20056;-72
2021/04/05 09:53:04;;;;;;;21.90;7.15;;;;;;;12.20;46.79;97952.97;5027048;28;20696;-72
2021/04/05 09:55:33;;;;;;;23.13;7.25;;;;;;;12.33;46.44;97942.94;5043819;28;20029;-71
2021/04/05 09:58:15;;;;;;;18.10;7.97;;;;;;;12.82;45.42;97943.50;5044000;28;20126;-72
2021/04/05 10:00:50;;;;;;;17.48;7.10;;;;;;;12.57;45.25;97932.91;5048464;28;20154;-72
2021/04/05 10:03:17;;;;;;;23.10;7.35;;;;;;;12.78;45.30;97926.84;5040818;28;20025;-71
2021/04/05 10:05:45;;;;;;;20.88;7.07;;;;;;;12.70;44.03;97914.47;5045359;28;20041;-71
2021/04/05 10:08:31;;;;;;;20.10;7.07;;;;;;;12.77;43.93;97933.34;5029622;28;20057;-71
2021/04/05 10:11:02;;;;;;;18.48;7.75;;;;;;;12.73;44.16;97907.75;5029348;28;20098;-72
2021/04/05 10:13:29;;;;;;;16.63;6.45;;;;;;;13.23;42.69;97890.00;5046545;28;20561;-71
2021/04/05 10:15:57;;;;;;;15.43;6.15;;;;;;;12.60;43.90;97905.28;5047565;28;20435;-72
2021/04/05 10:18:23;;;;;;;18.20;7.10;;;;;;;13.96;42.16;97893.75;5050261;28;20082;-71
2021/04/05 10:20:51;;;;;;;15.00;6.93;;;;;;;13.96;41.09;97877.44;5038085;28;20127;-71
2021/04/05 10:23:20;;;;;;;13.40;6.55;;;;;;;13.54;42.36;97881.38;5043317;28;20029;-72
2021/04/05 10:25:52;;;;;;;18.20;6.88;;;;;;;13.08;42.75;97888.66;5043759;28;20025;-72
2021/04/05 10:28:18;;;;;;;14.93;6.18;;;;;;;13.93;41.31;97878.75;5051931;28;20124;-72
2021/04/05 10:30:45;;;;;;;18.70;6.25;;;;;;;14.55;40.51;97877.81;5043042;28;20035;-73
2021/04/05 10:33:22;;;;;;;13.82;6.28;;;;;;;14.85;40.01;97879.25;5049091;28;20079;-72
2021/04/05 10:35:51;;;;;;;18.88;6.93;;;;;;;14.90;40.85;97874.69;5035583;28;20021;-73
2021/04/05 10:38:17;;;;;;;15.68;6.38;;;;;;;14.57;40.84;97874.84;5051373;28;20166;-72
2021/04/05 10:40:43;;;;;;;15.45;5.68;;;;;;;13.21;43.11;97886.72;5035187;28;20036;-71
2021/04/05 10:43:26;;;;;;;14.45;6.93;;;;;;;12.43;44.88;97884.31;5041796;28;20056;-72
2021/04/05 10:45:57;;;;;;;14.70;6.40;;;;;;;11.70;46.86;97882.88;5033567;28;20490;-71
2021/04/05 10:48:36;;;;;;;12.02;5.88;;;;;;;11.98;47.38;97879.53;5048339;28;20029;-72
2021/04/05 10:51:08;;;;;;;12.70;6.05;;;;;;;11.92;47.56;97883.19;5043482;28;20037;-72
2021/04/05 10:53:39;;;;;;;14.68;5.63;;;;;;;11.43;48.74;97844.53;5047731;28;20355;-71
2021/04/05 10:56:08;;;;;;;13.00;6.38;;;;;;;11.12;49.51;97873.53;5059464;28;20038;-71
2021/04/05 10:58:44;;;;;;;13.03;6.87;;;;;;;10.81;50.09;97890.78;5016618;28;20033;-71
2021/04/05 11:01:10;;;;;;;16.27;6.05;;;;;;;10.82;50.25;97876.22;5035841;28;20637;-72
2021/04/05 11:03:43;;;;;;;28.35;7.38;;;;;;;10.95;50.10;97864.38;5046713;28;20115;-73
2021/04/05 11:06:12;;;;;;;18.05;6.25;;;;;;;11.36;49.41;97858.19;5043287;28;20023;-72
2021/04/05 11:08:38;;;;;;;17.40;6.40;;;;;;;11.57;48.37;97864.94;5051070;28;20028;-71
2021/04/05 11:11:09;;;;;;;17.80;6.10;;;;;;;11.54;49.37;97873.53;5049992;28;20029;-71
2021/04/05 11:13:37;;;;;;;16.35;6.53;;;;;;;11.62;48.85;97851.50;5050434;28;20064;-72
2021/04/05 11:16:11;;;;;;;15.45;6.55;;;;;;;11.59;48.90;97853.88;5035935;28;20032;-71
2021/04/05 11:18:47;;;;;;;13.00;6.20;;;;;;;11.10;49.42;97840.44;5031280;28;20049;-72
2021/04/05 11:21:16;;;;;;;14.73;6.28;;;;;;;11.43;49.72;97855.38;5052784;28;20055;-71
2021/04/05 11:23:42;;;;;;;15.57;6.67;;;;;;;11.33;49.71;97836.16;5051115;28;20028;-71
2021/04/05 11:26:09;;;;;;;20.30;7.50;;;;;;;11.54;49.53;97854.56;5047371;28;20298;-72
2021/04/05 11:28:37;;;;;;;22.60;6.45;;;;;;;11.32;49.29;97848.06;5041112;28;20032;-71
2021/04/05 11:31:17;;;;;;;17.35;6.57;;;;;;;10.90;49.79;97839.91;5036060;28;20073;-71
2021/04/05 11:33:56;;;;;;;17.98;6.75;;;;;;;11.11;50.27;97852.13;5024492;28;20080;-71
2021/04/05 11:36:22;;;;;;;22.95;6.10;;;;;;;11.10;50.26;97836.91;5041918;28;20041;-72
2021/04/05 11:38:49;;;;;;;17.13;7.90;;;;;;;11.23;51.41;97841.31;5045879;28;20036;-73
2021/04/05 11:41:24;;;;;;;19.48;8.02;;;;;;;11.34;51.52;97843.22;5049413;28;20116;-71
2021/04/05 11:43:54;;;;;;;16.42;7.30;;;;;;;11.34;51.95;97859.47;5045762;28;20042;-72
2021/04/05 11:46:21;;;;;;;17.85;7.50;;;;;;;10.91;51.89;97850.50;5046653;28;20040;-71
2021/04/05 11:49:00;;;;;;;21.90;7.57;;;;;;;10.96;52.01;97839.81;5031407;28;20057;-71
2021/04/05 11:51:27;;;;;;;14.77;7.75;;;;;;;10.87;52.12;97841.19;5048102;28;20033;-71
2021/04/05 11:53:59;;;;;;;22.75;7.72;;;;;;;10.66;52.45;97814.63;5032324;28;20045;-70
2021/04/05 11:56:28;;;;;;;21.25;8.18;;;;;;;10.62;52.71;97844.00;5048758;28;20029;-71
2021/04/05 11:59:20;;;;;;;22.50;7.70;;;;;;;10.48;53.14;97845.25;5036457;28;20032;-73
2021/04/05 12:01:58;;;;;;;27.92;8.05;;;;;;;10.44;52.84;97825.09;5035230;28;20267;-70
2021/04/05 12:04:38;;;;;;;20.75;7.55;;;;;;;10.71;52.61;97837.22;5034782;28;20037;-72